sensor_id;sensor_type;location;lat;lon;timestamp;temperature;humidity
22153;DHT22;11242;50.536;12.688;2022-07-10T00:02:05;11.90;99.90
22153;DHT22;11242;50.536;12.688;2022-07-10T00:04:31;11.90;99.90
22153;DHT22;11242;50.536;12.688;2022-07-10T00:06:56;11.80;99.90
22153;DHT22;11242;50.536;12.688;2022-07-10T00:09:24;11.80;99.90
22153;DHT22;11242;50.536;12.688;2022-07-10T00:11:49;11.80;99.90
22153;DHT22;11242;50.536;12.688;2022-07-10T00:14:15;11.70;99.90
22153;DHT22;11242;50.536;12.688;2022-07-10T00:16:41;11.60;99.90
22153;DHT22;11242;50.536;12.688;2022-07-10T00:19:06;11.60;99.90
22153;DHT22;11242;50.536;12.688;2022-07-10T00:21:32;11.60;99.90
22153;DHT22;11242;50.536;12.688;2022-07-10T00:23:57;11.50;99.90
22153;DHT22;11242;50.536;12.688;2022-07-10T00:26:23;11.40;99.90
22153;DHT22;11242;50.536;12.688;2022-07-10T00:28:48;11.40;99.90
22153;DHT22;11242;50.536;12.688;2022-07-10T00:31:14;11.40;99.90
22153;DHT22;11242;50.536;12.688;2022-07-10T00:33:40;11.30;99.90
22153;DHT22;11242;50.536;12.688;2022-07-10T00:36:05;11.30;99.90
22153;DHT22;11242;50.536;12.688;2022-07-10T00:38:32;11.20;99.90
22153;DHT22;11242;50.536;12.688;2022-07-10T00:40:57;11.20;99.90
22153;DHT22;11242;50.536;12.688;2022-07-10T00:43:23;11.20;99.90
22153;DHT22;11242;50.536;12.688;2022-07-10T00:45:49;11.10;99.90
22153;DHT22;11242;50.536;12.688;2022-07-10T00:48:15;11.10;99.90
22153;DHT22;11242;50.536;12.688;2022-07-10T00:50:42;11.10;99.90
22153;DHT22;11242;50.536;12.688;2022-07-10T00:53:10;11.10;99.90
22153;DHT22;11242;50.536;12.688;2022-07-10T00:55:36;11.10;99.90
22153;DHT22;11242;50.536;12.688;2022-07-10T00:58:07;11.10;99.90
22153;DHT22;11242;50.536;12.688;2022-07-10T01:00:34;11.10;99.90
22153;DHT22;11242;50.536;12.688;2022-07-10T01:03:00;11.10;99.90
22153;DHT22;11242;50.536;12.688;2022-07-10T01:05:25;11.10;99.90
22153;DHT22;11242;50.536;12.688;2022-07-10T01:07:51;11.10;99.90
22153;DHT22;11242;50.536;12.688;2022-07-10T01:10:17;11.10;99.90
22153;DHT22;11242;50.536;12.688;2022-07-10T01:12:42;11.20;99.90
22153;DHT22;11242;50.536;12.688;2022-07-10T01:15:09;11.10;99.90
22153;DHT22;11242;50.536;12.688;2022-07-10T01:17:35;11.10;99.90
22153;DHT22;11242;50.536;12.688;2022-07-10T01:20:08;11.10;99.90
22153;DHT22;11242;50.536;12.688;2022-07-10T01:22:35;11.10;99.90
22153;DHT22;11242;50.536;12.688;2022-07-10T01:25:01;11.10;99.90
22153;DHT22;11242;50.536;12.688;2022-07-10T01:27:26;11.10;99.90
22153;DHT22;11242;50.536;12.688;2022-07-10T01:29:53;11.10;99.90
22153;DHT22;11242;50.536;12.688;2022-07-10T01:32:19;11.10;99.90
22153;DHT22;11242;50.536;12.688;2022-07-10T01:34:45;11.10;99.90
22153;DHT22;11242;50.536;12.688;2022-07-10T01:37:12;11.00;99.90
22153;DHT22;11242;50.536;12.688;2022-07-10T01:39:38;11.10;99.90
22153;DHT22;11242;50.536;12.688;2022-07-10T01:42:03;11.10;99.90
22153;DHT22;11242;50.536;12.688;2022-07-10T01:44:29;11.00;99.90
22153;DHT22;11242;50.536;12.688;2022-07-10T01:46:55;11.00;99.90
22153;DHT22;11242;50.536;12.688;2022-07-10T01:49:20;11.00;99.90
22153;DHT22;11242;50.536;12.688;2022-07-10T01:51:46;10.90;99.90
22153;DHT22;11242;50.536;12.688;2022-07-10T01:54:11;11.00;99.90
22153;DHT22;11242;50.536;12.688;2022-07-10T01:56:37;11.00;99.90
22153;DHT22;11242;50.536;12.688;2022-07-10T01:59:03;11.00;99.90
22153;DHT22;11242;50.536;12.688;2022-07-10T02:01:30;10.90;99.90
22153;DHT22;11242;50.536;12.688;2022-07-10T02:03:56;10.90;99.90
22153;DHT22;11242;50.536;12.688;2022-07-10T02:06:40;10.80;99.90
22153;DHT22;11242;50.536;12.688;2022-07-10T02:09:05;10.80;99.90
22153;DHT22;11242;50.536;12.688;2022-07-10T02:11:31;10.80;99.90
22153;DHT22;11242;50.536;12.688;2022-07-10T02:13:56;10.80;99.90
22153;DHT22;11242;50.536;12.688;2022-07-10T02:16:22;10.80;99.90
22153;DHT22;11242;50.536;12.688;2022-07-10T02:18:47;10.80;99.90
22153;DHT22;11242;50.536;12.688;2022-07-10T02:21:13;10.70;99.90
22153;DHT22;11242;50.536;12.688;2022-07-10T02:23:38;10.70;99.90
22153;DHT22;11242;50.536;12.688;2022-07-10T02:26:06;10.70;99.90
22153;DHT22;11242;50.536;12.688;2022-07-10T02:28:31;10.70;99.90
22153;DHT22;11242;50.536;12.688;2022-07-10T02:30:57;10.70;99.90
22153;DHT22;11242;50.536;12.688;2022-07-10T02:33:23;10.70;99.90
22153;DHT22;11242;50.536;12.688;2022-07-10T02:35:48;10.70;99.90
22153;DHT22;11242;50.536;12.688;2022-07-10T02:38:14;10.70;99.90
22153;DHT22;11242;50.536;12.688;2022-07-10T02:40:40;10.60;99.90
22153;DHT22;11242;50.536;12.688;2022-07-10T02:43:06;10.70;99.90
22153;DHT22;11242;50.536;12.688;2022-07-10T02:45:31;10.60;99.90
22153;DHT22;11242;50.536;12.688;2022-07-10T02:47:57;10.70;99.90
22153;DHT22;11242;50.536;12.688;2022-07-10T02:50:22;10.70;99.90
22153;DHT22;11242;50.536;12.688;2022-07-10T02:52:48;10.70;99.90
22153;DHT22;11242;50.536;12.688;2022-07-10T02:55:13;10.70;99.90
22153;DHT22;11242;50.536;12.688;2022-07-10T02:57:39;10.60;99.90
22153;DHT22;11242;50.536;12.688;2022-07-10T03:00:05;10.60;99.90
22153;DHT22;11242;50.536;12.688;2022-07-10T03:02:31;10.60;99.90
22153;DHT22;11242;50.536;12.688;2022-07-10T03:04:56;10.60;99.90
22153;DHT22;11242;50.536;12.688;2022-07-10T03:07:22;10.60;99.90
22153;DHT22;11242;50.536;12.688;2022-07-10T03:09:47;10.60;99.90
22153;DHT22;11242;50.536;12.688;2022-07-10T03:12:13;10.60;99.90
22153;DHT22;11242;50.536;12.688;2022-07-10T03:14:38;10.50;99.90
22153;DHT22;11242;50.536;12.688;2022-07-10T03:17:04;10.60;99.90
22153;DHT22;11242;50.536;12.688;2022-07-10T03:19:29;10.50;99.90
22153;DHT22;11242;50.536;12.688;2022-07-10T03:21:55;10.50;99.90
22153;DHT22;11242;50.536;12.688;2022-07-10T03:24:20;10.50;99.90
22153;DHT22;11242;50.536;12.688;2022-07-10T03:26:46;10.50;99.90
22153;DHT22;11242;50.536;12.688;2022-07-10T03:29:12;10.50;99.90
22153;DHT22;11242;50.536;12.688;2022-07-10T03:31:37;10.50;99.90
22153;DHT22;11242;50.536;12.688;2022-07-10T03:34:03;10.50;99.90
22153;DHT22;11242;50.536;12.688;2022-07-10T03:36:28;10.50;99.90
22153;DHT22;11242;50.536;12.688;2022-07-10T03:38:54;10.50;99.90
22153;DHT22;11242;50.536;12.688;2022-07-10T03:41:19;10.50;99.90
22153;DHT22;11242;50.536;12.688;2022-07-10T03:43:45;10.50;99.90
22153;DHT22;11242;50.536;12.688;2022-07-10T03:46:10;10.50;99.90
22153;DHT22;11242;50.536;12.688;2022-07-10T03:48:36;10.40;99.90
22153;DHT22;11242;50.536;12.688;2022-07-10T03:51:02;10.40;99.90
22153;DHT22;11242;50.536;12.688;2022-07-10T03:53:27;10.40;99.90
22153;DHT22;11242;50.536;12.688;2022-07-10T03:55:53;10.30;99.90
22153;DHT22;11242;50.536;12.688;2022-07-10T03:58:19;10.40;99.90
22153;DHT22;11242;50.536;12.688;2022-07-10T04:00:45;10.40;99.90
22153;DHT22;11242;50.536;12.688;2022-07-10T04:03:11;10.40;99.90
22153;DHT22;11242;50.536;12.688;2022-07-10T04:05:36;10.50;99.90
22153;DHT22;11242;50.536;12.688;2022-07-10T04:08:03;10.50;99.90
22153;DHT22;11242;50.536;12.688;2022-07-10T04:10:30;10.50;99.90
22153;DHT22;11242;50.536;12.688;2022-07-10T04:12:57;10.60;99.90
22153;DHT22;11242;50.536;12.688;2022-07-10T04:15:22;10.60;99.90
22153;DHT22;11242;50.536;12.688;2022-07-10T04:17:49;10.60;99.90
22153;DHT22;11242;50.536;12.688;2022-07-10T04:20:15;10.60;99.90
22153;DHT22;11242;50.536;12.688;2022-07-10T04:22:41;10.70;99.90
22153;DHT22;11242;50.536;12.688;2022-07-10T04:25:08;10.80;99.90
22153;DHT22;11242;50.536;12.688;2022-07-10T04:27:34;10.80;99.90
22153;DHT22;11242;50.536;12.688;2022-07-10T04:30:00;10.80;99.90
22153;DHT22;11242;50.536;12.688;2022-07-10T04:32:25;10.90;99.90
22153;DHT22;11242;50.536;12.688;2022-07-10T04:34:53;10.90;99.90
22153;DHT22;11242;50.536;12.688;2022-07-10T04:37:19;11.00;99.90
22153;DHT22;11242;50.536;12.688;2022-07-10T04:39:44;11.00;99.90
22153;DHT22;11242;50.536;12.688;2022-07-10T04:42:10;11.00;99.90
22153;DHT22;11242;50.536;12.688;2022-07-10T04:44:36;11.00;99.90
22153;DHT22;11242;50.536;12.688;2022-07-10T04:47:02;11.10;99.90
22153;DHT22;11242;50.536;12.688;2022-07-10T04:49:28;11.10;99.90
22153;DHT22;11242;50.536;12.688;2022-07-10T04:51:54;11.10;99.90
22153;DHT22;11242;50.536;12.688;2022-07-10T04:54:20;11.20;99.90
22153;DHT22;11242;50.536;12.688;2022-07-10T04:56:46;11.30;99.90
22153;DHT22;11242;50.536;12.688;2022-07-10T04:59:11;11.40;99.90
22153;DHT22;11242;50.536;12.688;2022-07-10T05:01:37;11.50;99.90
22153;DHT22;11242;50.536;12.688;2022-07-10T05:04:03;11.60;99.90
22153;DHT22;11242;50.536;12.688;2022-07-10T05:06:29;11.60;99.90
22153;DHT22;11242;50.536;12.688;2022-07-10T05:08:55;11.50;99.90
22153;DHT22;11242;50.536;12.688;2022-07-10T05:11:21;11.60;99.90
22153;DHT22;11242;50.536;12.688;2022-07-10T05:13:47;11.60;99.90
22153;DHT22;11242;50.536;12.688;2022-07-10T05:16:14;11.60;99.90
22153;DHT22;11242;50.536;12.688;2022-07-10T05:18:40;11.70;99.90
22153;DHT22;11242;50.536;12.688;2022-07-10T05:21:06;11.70;99.90
22153;DHT22;11242;50.536;12.688;2022-07-10T05:23:32;11.70;99.90
22153;DHT22;11242;50.536;12.688;2022-07-10T05:25:58;11.80;99.90
22153;DHT22;11242;50.536;12.688;2022-07-10T05:28:23;11.80;99.90
22153;DHT22;11242;50.536;12.688;2022-07-10T05:30:49;11.80;99.90
22153;DHT22;11242;50.536;12.688;2022-07-10T05:33:15;11.80;99.90
22153;DHT22;11242;50.536;12.688;2022-07-10T05:35:41;11.70;99.90
22153;DHT22;11242;50.536;12.688;2022-07-10T05:38:06;11.70;99.90
22153;DHT22;11242;50.536;12.688;2022-07-10T05:40:32;11.70;99.90
22153;DHT22;11242;50.536;12.688;2022-07-10T05:42:58;11.70;99.90
22153;DHT22;11242;50.536;12.688;2022-07-10T05:45:23;11.70;99.90
22153;DHT22;11242;50.536;12.688;2022-07-10T05:47:49;11.80;99.90
22153;DHT22;11242;50.536;12.688;2022-07-10T05:50:15;11.90;99.90
22153;DHT22;11242;50.536;12.688;2022-07-10T05:52:41;11.80;99.90
22153;DHT22;11242;50.536;12.688;2022-07-10T05:55:07;11.70;99.90
22153;DHT22;11242;50.536;12.688;2022-07-10T05:57:33;11.70;99.90
22153;DHT22;11242;50.536;12.688;2022-07-10T05:59:59;11.80;99.90
22153;DHT22;11242;50.536;12.688;2022-07-10T06:02:25;11.70;99.90
22153;DHT22;11242;50.536;12.688;2022-07-10T06:04:51;11.80;99.90
22153;DHT22;11242;50.536;12.688;2022-07-10T06:07:16;11.80;99.90
22153;DHT22;11242;50.536;12.688;2022-07-10T06:09:42;12.00;99.90
22153;DHT22;11242;50.536;12.688;2022-07-10T06:12:08;12.10;99.90
22153;DHT22;11242;50.536;12.688;2022-07-10T06:14:33;12.10;99.90
22153;DHT22;11242;50.536;12.688;2022-07-10T06:16:59;12.20;99.90
22153;DHT22;11242;50.536;12.688;2022-07-10T06:19:25;12.20;99.90
22153;DHT22;11242;50.536;12.688;2022-07-10T06:21:50;12.30;99.90
22153;DHT22;11242;50.536;12.688;2022-07-10T06:24:36;12.20;99.90
22153;DHT22;11242;50.536;12.688;2022-07-10T06:27:02;12.30;99.90
22153;DHT22;11242;50.536;12.688;2022-07-10T06:29:28;12.30;99.90
22153;DHT22;11242;50.536;12.688;2022-07-10T06:31:53;12.00;99.90
22153;DHT22;11242;50.536;12.688;2022-07-10T06:34:19;11.90;99.90
22153;DHT22;11242;50.536;12.688;2022-07-10T06:36:45;11.80;99.90
22153;DHT22;11242;50.536;12.688;2022-07-10T06:39:11;11.80;99.90
22153;DHT22;11242;50.536;12.688;2022-07-10T06:41:36;11.70;99.90
22153;DHT22;11242;50.536;12.688;2022-07-10T06:44:02;11.70;99.90
22153;DHT22;11242;50.536;12.688;2022-07-10T06:46:28;11.60;99.90
22153;DHT22;11242;50.536;12.688;2022-07-10T06:48:54;11.60;99.90
22153;DHT22;11242;50.536;12.688;2022-07-10T06:51:19;11.60;99.90
22153;DHT22;11242;50.536;12.688;2022-07-10T06:53:45;11.40;99.90
22153;DHT22;11242;50.536;12.688;2022-07-10T06:56:11;11.20;99.90
22153;DHT22;11242;50.536;12.688;2022-07-10T06:58:38;11.20;99.90
22153;DHT22;11242;50.536;12.688;2022-07-10T07:01:04;11.30;99.90
22153;DHT22;11242;50.536;12.688;2022-07-10T07:03:30;11.50;99.90
22153;DHT22;11242;50.536;12.688;2022-07-10T07:05:55;11.70;99.90
22153;DHT22;11242;50.536;12.688;2022-07-10T07:08:21;11.80;99.90
22153;DHT22;11242;50.536;12.688;2022-07-10T07:10:46;11.60;99.90
22153;DHT22;11242;50.536;12.688;2022-07-10T07:13:12;11.30;99.90
22153;DHT22;11242;50.536;12.688;2022-07-10T07:15:37;10.90;99.90
22153;DHT22;11242;50.536;12.688;2022-07-10T07:18:04;10.70;99.90
22153;DHT22;11242;50.536;12.688;2022-07-10T07:20:36;10.50;99.90
22153;DHT22;11242;50.536;12.688;2022-07-10T07:23:22;10.20;99.90
22153;DHT22;11242;50.536;12.688;2022-07-10T07:25:47;10.20;99.90
22153;DHT22;11242;50.536;12.688;2022-07-10T07:28:14;10.30;99.90
22153;DHT22;11242;50.536;12.688;2022-07-10T07:30:45;10.50;99.90
22153;DHT22;11242;50.536;12.688;2022-07-10T07:33:11;10.60;99.90
22153;DHT22;11242;50.536;12.688;2022-07-10T07:35:37;10.80;99.90
22153;DHT22;11242;50.536;12.688;2022-07-10T07:38:03;11.00;99.90
22153;DHT22;11242;50.536;12.688;2022-07-10T07:40:28;11.10;99.90
22153;DHT22;11242;50.536;12.688;2022-07-10T07:42:54;11.20;99.90
22153;DHT22;11242;50.536;12.688;2022-07-10T07:45:23;11.50;99.90
22153;DHT22;11242;50.536;12.688;2022-07-10T07:47:57;12.00;99.90
22153;DHT22;11242;50.536;12.688;2022-07-10T07:50:26;12.70;99.90
22153;DHT22;11242;50.536;12.688;2022-07-10T07:52:53;13.90;99.90
22153;DHT22;11242;50.536;12.688;2022-07-10T07:55:20;14.40;99.90
22153;DHT22;11242;50.536;12.688;2022-07-10T07:57:46;14.30;99.90
22153;DHT22;11242;50.536;12.688;2022-07-10T08:00:13;14.10;99.90
22153;DHT22;11242;50.536;12.688;2022-07-10T08:02:40;13.90;99.90
22153;DHT22;11242;50.536;12.688;2022-07-10T08:05:06;13.30;99.90
22153;DHT22;11242;50.536;12.688;2022-07-10T08:07:40;13.20;99.90
22153;DHT22;11242;50.536;12.688;2022-07-10T08:10:08;13.00;99.90
22153;DHT22;11242;50.536;12.688;2022-07-10T08:12:34;13.20;99.90
22153;DHT22;11242;50.536;12.688;2022-07-10T08:15:00;13.20;99.90
22153;DHT22;11242;50.536;12.688;2022-07-10T08:17:26;13.10;99.90
22153;DHT22;11242;50.536;12.688;2022-07-10T08:19:52;13.20;99.90
22153;DHT22;11242;50.536;12.688;2022-07-10T08:22:17;13.30;99.90
22153;DHT22;11242;50.536;12.688;2022-07-10T08:24:43;13.40;99.90
22153;DHT22;11242;50.536;12.688;2022-07-10T08:27:08;13.60;99.90
22153;DHT22;11242;50.536;12.688;2022-07-10T08:29:34;13.70;99.90
22153;DHT22;11242;50.536;12.688;2022-07-10T08:32:00;13.60;99.90
22153;DHT22;11242;50.536;12.688;2022-07-10T08:34:26;13.40;99.90
22153;DHT22;11242;50.536;12.688;2022-07-10T08:36:53;13.20;99.90
22153;DHT22;11242;50.536;12.688;2022-07-10T08:39:18;13.20;99.90
22153;DHT22;11242;50.536;12.688;2022-07-10T08:41:47;13.20;99.90
22153;DHT22;11242;50.536;12.688;2022-07-10T08:44:18;13.20;99.90
22153;DHT22;11242;50.536;12.688;2022-07-10T08:46:44;13.30;99.90
22153;DHT22;11242;50.536;12.688;2022-07-10T08:49:11;13.20;99.90
22153;DHT22;11242;50.536;12.688;2022-07-10T08:54:31;12.50;99.90
22153;DHT22;11242;50.536;12.688;2022-07-10T08:56:58;12.20;99.90
22153;DHT22;11242;50.536;12.688;2022-07-10T08:59:24;12.10;99.90
22153;DHT22;11242;50.536;12.688;2022-07-10T09:01:50;12.10;99.90
22153;DHT22;11242;50.536;12.688;2022-07-10T09:04:25;12.20;99.90
22153;DHT22;11242;50.536;12.688;2022-07-10T09:06:52;12.20;99.90
22153;DHT22;11242;50.536;12.688;2022-07-10T09:09:18;12.00;99.90
22153;DHT22;11242;50.536;12.688;2022-07-10T09:11:45;11.80;99.90
22153;DHT22;11242;50.536;12.688;2022-07-10T09:14:14;11.50;99.90
22153;DHT22;11242;50.536;12.688;2022-07-10T09:16:41;11.40;99.90
22153;DHT22;11242;50.536;12.688;2022-07-10T09:19:21;11.20;99.90
22153;DHT22;11242;50.536;12.688;2022-07-10T09:21:52;11.10;99.90
22153;DHT22;11242;50.536;12.688;2022-07-10T09:24:18;11.10;99.90
22153;DHT22;11242;50.536;12.688;2022-07-10T09:26:58;11.00;99.90
22153;DHT22;11242;50.536;12.688;2022-07-10T09:29:25;11.00;99.90
22153;DHT22;11242;50.536;12.688;2022-07-10T09:34:17;11.10;99.90
22153;DHT22;11242;50.536;12.688;2022-07-10T09:36:43;11.20;99.90
22153;DHT22;11242;50.536;12.688;2022-07-10T09:39:08;11.20;99.90
22153;DHT22;11242;50.536;12.688;2022-07-10T09:41:34;11.20;99.90
22153;DHT22;11242;50.536;12.688;2022-07-10T09:44:03;11.20;99.90
22153;DHT22;11242;50.536;12.688;2022-07-10T09:46:34;11.10;99.90
22153;DHT22;11242;50.536;12.688;2022-07-10T09:49:09;11.00;99.90
22153;DHT22;11242;50.536;12.688;2022-07-10T09:51:42;11.00;99.90
22153;DHT22;11242;50.536;12.688;2022-07-10T09:54:09;11.20;99.90
22153;DHT22;11242;50.536;12.688;2022-07-10T09:56:41;11.60;99.90
22153;DHT22;11242;50.536;12.688;2022-07-10T09:59:18;12.00;99.90
22153;DHT22;11242;50.536;12.688;2022-07-10T10:01:49;12.70;99.90
22153;DHT22;11242;50.536;12.688;2022-07-10T10:04:20;13.00;99.90
22153;DHT22;11242;50.536;12.688;2022-07-10T10:06:51;13.20;99.90
22153;DHT22;11242;50.536;12.688;2022-07-10T10:09:24;13.40;99.90
22153;DHT22;11242;50.536;12.688;2022-07-10T10:12:06;13.10;99.90
22153;DHT22;11242;50.536;12.688;2022-07-10T10:14:32;12.50;99.90
22153;DHT22;11242;50.536;12.688;2022-07-10T10:17:00;12.40;99.90
22153;DHT22;11242;50.536;12.688;2022-07-10T10:19:26;12.70;99.90
22153;DHT22;11242;50.536;12.688;2022-07-10T10:22:12;13.10;99.90
22153;DHT22;11242;50.536;12.688;2022-07-10T10:24:39;13.50;99.90
22153;DHT22;11242;50.536;12.688;2022-07-10T10:27:08;14.00;99.90
22153;DHT22;11242;50.536;12.688;2022-07-10T10:29:36;14.10;99.90
22153;DHT22;11242;50.536;12.688;2022-07-10T10:32:02;14.30;99.90
22153;DHT22;11242;50.536;12.688;2022-07-10T10:34:45;14.40;99.90
22153;DHT22;11242;50.536;12.688;2022-07-10T10:37:50;14.60;99.90
22153;DHT22;11242;50.536;12.688;2022-07-10T10:40:33;14.90;99.90
22153;DHT22;11242;50.536;12.688;2022-07-10T10:43:24;15.90;99.90
22153;DHT22;11242;50.536;12.688;2022-07-10T10:45:52;16.50;99.90
22153;DHT22;11242;50.536;12.688;2022-07-10T10:48:19;16.80;99.90
22153;DHT22;11242;50.536;12.688;2022-07-10T10:50:53;16.80;99.90
22153;DHT22;11242;50.536;12.688;2022-07-10T10:53:21;17.10;99.90
22153;DHT22;11242;50.536;12.688;2022-07-10T10:58:43;16.30;99.90
22153;DHT22;11242;50.536;12.688;2022-07-10T11:06:39;14.40;99.90
22153;DHT22;11242;50.536;12.688;2022-07-10T11:12:06;13.40;99.90
22153;DHT22;11242;50.536;12.688;2022-07-10T11:14:52;13.20;99.90
22153;DHT22;11242;50.536;12.688;2022-07-10T11:17:27;13.20;99.90
22153;DHT22;11242;50.536;12.688;2022-07-10T11:19:53;13.20;99.90
22153;DHT22;11242;50.536;12.688;2022-07-10T11:23:06;13.30;99.90
22153;DHT22;11242;50.536;12.688;2022-07-10T11:25:42;13.30;99.90
22153;DHT22;11242;50.536;12.688;2022-07-10T11:28:21;13.80;99.90
22153;DHT22;11242;50.536;12.688;2022-07-10T11:30:54;14.50;99.90
22153;DHT22;11242;50.536;12.688;2022-07-10T11:33:20;15.30;99.90
22153;DHT22;11242;50.536;12.688;2022-07-10T11:35:48;15.70;99.90
22153;DHT22;11242;50.536;12.688;2022-07-10T11:38:21;16.10;99.90
22153;DHT22;11242;50.536;12.688;2022-07-10T11:40:47;16.10;99.90
22153;DHT22;11242;50.536;12.688;2022-07-10T11:43:13;16.10;99.90
22153;DHT22;11242;50.536;12.688;2022-07-10T11:45:42;16.30;99.90
22153;DHT22;11242;50.536;12.688;2022-07-10T11:48:17;16.10;99.90
22153;DHT22;11242;50.536;12.688;2022-07-10T11:50:43;16.00;99.90
22153;DHT22;11242;50.536;12.688;2022-07-10T11:53:09;15.60;99.90
22153;DHT22;11242;50.536;12.688;2022-07-10T11:55:37;15.30;99.90
22153;DHT22;11242;50.536;12.688;2022-07-10T11:58:17;14.90;99.90
22153;DHT22;11242;50.536;12.688;2022-07-10T12:00:43;14.70;99.90
22153;DHT22;11242;50.536;12.688;2022-07-10T12:03:20;14.70;99.90
22153;DHT22;11242;50.536;12.688;2022-07-10T12:05:46;14.70;99.90
22153;DHT22;11242;50.536;12.688;2022-07-10T12:08:12;14.70;99.90
22153;DHT22;11242;50.536;12.688;2022-07-10T12:10:38;14.90;99.90
22153;DHT22;11242;50.536;12.688;2022-07-10T12:13:08;15.20;99.90
22153;DHT22;11242;50.536;12.688;2022-07-10T12:15:39;15.20;99.90
22153;DHT22;11242;50.536;12.688;2022-07-10T12:18:09;14.90;99.90
22153;DHT22;11242;50.536;12.688;2022-07-10T12:20:35;14.30;99.90
22153;DHT22;11242;50.536;12.688;2022-07-10T12:23:03;13.90;99.90
22153;DHT22;11242;50.536;12.688;2022-07-10T12:25:29;13.90;99.90
22153;DHT22;11242;50.536;12.688;2022-07-10T12:27:58;14.10;99.90
22153;DHT22;11242;50.536;12.688;2022-07-10T12:30:44;14.50;99.90
22153;DHT22;11242;50.536;12.688;2022-07-10T12:33:13;14.90;99.90
22153;DHT22;11242;50.536;12.688;2022-07-10T12:35:49;15.50;99.90
22153;DHT22;11242;50.536;12.688;2022-07-10T12:38:19;16.20;99.90
22153;DHT22;11242;50.536;12.688;2022-07-10T12:40:44;16.40;99.90
22153;DHT22;11242;50.536;12.688;2022-07-10T12:43:10;16.30;99.90
22153;DHT22;11242;50.536;12.688;2022-07-10T12:45:37;16.10;99.90
22153;DHT22;11242;50.536;12.688;2022-07-10T12:48:04;15.80;99.90
22153;DHT22;11242;50.536;12.688;2022-07-10T12:50:31;15.40;99.90
22153;DHT22;11242;50.536;12.688;2022-07-10T12:53:10;15.50;99.90
22153;DHT22;11242;50.536;12.688;2022-07-10T12:55:38;15.50;99.90
22153;DHT22;11242;50.536;12.688;2022-07-10T12:58:10;15.40;99.90
22153;DHT22;11242;50.536;12.688;2022-07-10T13:00:45;15.20;99.90
22153;DHT22;11242;50.536;12.688;2022-07-10T13:03:21;15.30;99.90
22153;DHT22;11242;50.536;12.688;2022-07-10T13:05:50;15.60;99.90
22153;DHT22;11242;50.536;12.688;2022-07-10T13:08:21;16.10;99.90
22153;DHT22;11242;50.536;12.688;2022-07-10T13:10:56;16.40;99.90
22153;DHT22;11242;50.536;12.688;2022-07-10T13:13:23;16.40;99.90
22153;DHT22;11242;50.536;12.688;2022-07-10T13:15:49;16.50;99.90
22153;DHT22;11242;50.536;12.688;2022-07-10T13:18:26;16.40;99.90
22153;DHT22;11242;50.536;12.688;2022-07-10T13:20:53;16.40;99.90
22153;DHT22;11242;50.536;12.688;2022-07-10T13:23:19;16.60;99.90
22153;DHT22;11242;50.536;12.688;2022-07-10T13:25:50;16.60;99.90
22153;DHT22;11242;50.536;12.688;2022-07-10T13:28:16;16.20;99.90
22153;DHT22;11242;50.536;12.688;2022-07-10T13:30:42;15.90;99.90
22153;DHT22;11242;50.536;12.688;2022-07-10T13:33:08;15.90;99.90
22153;DHT22;11242;50.536;12.688;2022-07-10T13:35:34;15.90;99.90
22153;DHT22;11242;50.536;12.688;2022-07-10T13:38:01;15.70;99.90
22153;DHT22;11242;50.536;12.688;2022-07-10T13:40:28;15.70;99.90
22153;DHT22;11242;50.536;12.688;2022-07-10T13:42:56;15.60;99.90
22153;DHT22;11242;50.536;12.688;2022-07-10T13:45:22;15.70;99.90
22153;DHT22;11242;50.536;12.688;2022-07-10T13:47:48;15.90;99.90
22153;DHT22;11242;50.536;12.688;2022-07-10T13:50:14;16.40;99.90
22153;DHT22;11242;50.536;12.688;2022-07-10T13:52:40;16.70;99.90
22153;DHT22;11242;50.536;12.688;2022-07-10T13:55:05;16.70;99.90
22153;DHT22;11242;50.536;12.688;2022-07-10T13:57:34;16.80;99.90
22153;DHT22;11242;50.536;12.688;2022-07-10T14:00:00;17.00;99.90
22153;DHT22;11242;50.536;12.688;2022-07-10T14:02:25;16.60;99.90
22153;DHT22;11242;50.536;12.688;2022-07-10T14:04:51;16.60;99.90
22153;DHT22;11242;50.536;12.688;2022-07-10T14:07:17;16.80;99.90
22153;DHT22;11242;50.536;12.688;2022-07-10T14:09:42;16.90;99.90
22153;DHT22;11242;50.536;12.688;2022-07-10T14:12:08;17.20;99.90
22153;DHT22;11242;50.536;12.688;2022-07-10T14:14:34;17.40;99.90
22153;DHT22;11242;50.536;12.688;2022-07-10T14:16:59;17.20;99.90
22153;DHT22;11242;50.536;12.688;2022-07-10T14:19:25;16.90;99.90
22153;DHT22;11242;50.536;12.688;2022-07-10T14:21:50;16.80;99.90
22153;DHT22;11242;50.536;12.688;2022-07-10T14:24:16;16.70;99.90
22153;DHT22;11242;50.536;12.688;2022-07-10T14:26:41;16.80;99.90
22153;DHT22;11242;50.536;12.688;2022-07-10T14:29:07;16.70;99.90
22153;DHT22;11242;50.536;12.688;2022-07-10T14:31:33;17.00;99.90
22153;DHT22;11242;50.536;12.688;2022-07-10T14:33:58;17.30;99.90
22153;DHT22;11242;50.536;12.688;2022-07-10T14:36:24;17.40;99.90
22153;DHT22;11242;50.536;12.688;2022-07-10T14:38:55;17.60;99.90
22153;DHT22;11242;50.536;12.688;2022-07-10T14:41:21;17.40;99.90
22153;DHT22;11242;50.536;12.688;2022-07-10T14:43:47;17.10;99.90
22153;DHT22;11242;50.536;12.688;2022-07-10T14:46:13;16.90;99.90
22153;DHT22;11242;50.536;12.688;2022-07-10T14:48:38;16.90;99.90
22153;DHT22;11242;50.536;12.688;2022-07-10T14:51:04;16.60;99.90
22153;DHT22;11242;50.536;12.688;2022-07-10T14:53:30;16.50;99.90
22153;DHT22;11242;50.536;12.688;2022-07-10T14:56:00;16.60;99.90
22153;DHT22;11242;50.536;12.688;2022-07-10T14:58:26;16.80;99.90
22153;DHT22;11242;50.536;12.688;2022-07-10T15:00:51;16.90;99.90
22153;DHT22;11242;50.536;12.688;2022-07-10T15:03:17;16.90;99.90
22153;DHT22;11242;50.536;12.688;2022-07-10T15:05:42;17.10;99.90
22153;DHT22;11242;50.536;12.688;2022-07-10T15:08:08;17.00;99.90
22153;DHT22;11242;50.536;12.688;2022-07-10T15:10:34;17.10;99.90
22153;DHT22;11242;50.536;12.688;2022-07-10T15:13:00;17.40;99.90
22153;DHT22;11242;50.536;12.688;2022-07-10T15:15:30;17.40;99.90
22153;DHT22;11242;50.536;12.688;2022-07-10T15:17:55;17.40;99.90
22153;DHT22;11242;50.536;12.688;2022-07-10T15:20:21;17.50;99.90
22153;DHT22;11242;50.536;12.688;2022-07-10T15:22:47;17.50;99.90
22153;DHT22;11242;50.536;12.688;2022-07-10T15:25:12;17.60;99.90
22153;DHT22;11242;50.536;12.688;2022-07-10T15:27:38;17.60;99.90
22153;DHT22;11242;50.536;12.688;2022-07-10T15:30:05;17.50;99.90
22153;DHT22;11242;50.536;12.688;2022-07-10T15:32:31;17.40;99.90
22153;DHT22;11242;50.536;12.688;2022-07-10T15:34:56;17.40;99.90